createdAt,value
2022-12-17T00:02:43.936Z,28.30
2022-12-17T00:05:29.967Z,28.43
2022-12-17T00:08:19.709Z,30.60
2022-12-17T00:11:06.046Z,28.93
2022-12-17T00:13:51.922Z,29.70
2022-12-17T00:16:38.112Z,30.83
2022-12-17T00:19:24.352Z,28.10
2022-12-17T00:22:10.484Z,27.37
2022-12-17T00:24:56.528Z,29.30
2022-12-17T00:27:42.470Z,29.83
2022-12-17T00:30:31.778Z,28.93
2022-12-17T00:33:17.754Z,28.53
2022-12-17T00:36:10.170Z,28.83
2022-12-17T00:38:56.725Z,28.73
2022-12-17T00:41:42.698Z,27.10
2022-12-17T00:44:29.821Z,28.27
2022-12-17T00:47:15.517Z,25.47
2022-12-17T00:50:04.770Z,27.40
2022-12-17T00:52:51.407Z,26.77
2022-12-17T00:55:39.508Z,28.37
2022-12-17T00:58:25.408Z,28.83
2022-12-17T01:01:16.417Z,28.03
2022-12-17T01:04:02.790Z,27.97
2022-12-17T01:06:49.382Z,25.83
2022-12-17T01:09:35.533Z,26.57
2022-12-17T01:12:21.709Z,26.33
2022-12-17T01:15:07.765Z,26.03
2022-12-17T01:17:53.955Z,27.53
2022-12-17T01:20:42.424Z,28.73
2022-12-17T01:23:28.915Z,26.87
2022-12-17T01:26:16.077Z,27.67
2022-12-17T01:29:02.512Z,26.53
2022-12-17T01:31:48.520Z,28.70
2022-12-17T01:34:36.838Z,26.67
2022-12-17T01:37:23.831Z,25.97
2022-12-17T01:40:12.894Z,26.53
2022-12-17T01:43:01.882Z,26.60
2022-12-17T01:45:56.994Z,28.00
2022-12-17T01:48:51.961Z,28.60
2022-12-17T01:51:40.502Z,27.70
2022-12-17T01:54:26.488Z,26.23
2022-12-17T01:57:18.386Z,27.73
2022-12-17T02:00:21.406Z,28.07
2022-12-17T02:03:07.193Z,26.73
2022-12-17T02:06:14.910Z,25.17
2022-12-17T02:09:16.293Z,27.20
2022-12-17T02:12:31.887Z,27.53
2022-12-17T02:15:33.435Z,25.70
2022-12-17T02:18:24.084Z,28.27
2022-12-17T02:21:12.563Z,26.47
2022-12-17T02:24:30.795Z,26.20
2022-12-17T02:27:23.512Z,26.40
2022-12-17T02:30:13.785Z,25.47
2022-12-17T02:33:02.919Z,27.17
2022-12-17T02:36:16.049Z,25.13
2022-12-17T02:39:02.278Z,25.43
2022-12-17T02:41:55.412Z,25.80
2022-12-17T02:44:42.422Z,25.30
2022-12-17T02:47:29.921Z,26.40
2022-12-17T02:50:15.974Z,26.77
2022-12-17T02:53:07.195Z,25.80
2022-12-17T02:55:55.202Z,25.07
2022-12-17T02:58:42.225Z,24.40
2022-12-17T03:01:28.476Z,23.93
2022-12-17T03:04:14.434Z,24.90
2022-12-17T03:07:03.645Z,25.30
2022-12-17T03:09:49.511Z,23.87
2022-12-17T03:12:36.810Z,25.33
2022-12-17T03:15:23.129Z,23.93
2022-12-17T03:18:09.133Z,25.50
2022-12-17T03:20:55.191Z,25.53
2022-12-17T03:23:41.220Z,25.17
2022-12-17T03:26:27.712Z,26.40
2022-12-17T03:29:13.849Z,23.47
2022-12-17T03:31:59.730Z,23.60
2022-12-17T03:34:45.546Z,24.50
2022-12-17T03:37:31.364Z,24.30
2022-12-17T03:40:17.176Z,25.47
2022-12-17T03:43:03.064Z,24.57
2022-12-17T03:45:48.950Z,23.77
2022-12-17T03:48:35.216Z,24.17
2022-12-17T03:51:21.180Z,23.70
2022-12-17T03:54:07.277Z,23.50
2022-12-17T03:56:53.369Z,21.77
2022-12-17T03:59:39.299Z,21.57
2022-12-17T04:02:25.508Z,21.97
2022-12-17T04:05:16.527Z,22.20
2022-12-17T04:08:06.205Z,22.00
2022-12-17T04:10:52.246Z,22.37
2022-12-17T04:13:41.351Z,21.83
2022-12-17T04:16:31.772Z,21.50
2022-12-17T04:19:17.837Z,21.97
2022-12-17T04:22:04.262Z,21.67
2022-12-17T04:24:50.065Z,22.53
2022-12-17T04:27:35.954Z,23.17
2022-12-17T04:30:25.285Z,22.33
2022-12-17T04:33:11.382Z,21.33
2022-12-17T04:36:07.972Z,22.67
2022-12-17T04:38:54.046Z,22.37
2022-12-17T04:41:40.685Z,23.23
2022-12-17T04:44:26.686Z,22.67
2022-12-17T04:47:12.777Z,22.47
2022-12-17T04:49:58.874Z,22.90
2022-12-17T04:52:45.033Z,23.00
2022-12-17T04:55:31.042Z,21.67
2022-12-17T04:58:24.692Z,23.77
2022-12-17T05:01:11.977Z,25.27
2022-12-17T05:03:59.012Z,22.17
2022-12-17T05:06:45.014Z,21.90
2022-12-17T05:09:30.873Z,24.37
2022-12-17T05:12:17.003Z,22.50
2022-12-17T05:15:03.650Z,24.87
2022-12-17T05:17:49.980Z,22.87
2022-12-17T05:20:35.784Z,22.20
2022-12-17T05:23:29.096Z,22.50
2022-12-17T05:26:24.042Z,24.47
2022-12-17T05:29:15.461Z,23.67
2022-12-17T05:32:01.697Z,25.07
2022-12-17T05:34:47.873Z,24.37
2022-12-17T05:37:34.325Z,24.13
2022-12-17T05:40:20.458Z,25.43
2022-12-17T05:43:17.811Z,21.70
2022-12-17T05:46:04.777Z,23.37
2022-12-17T05:48:53.313Z,21.07
2022-12-17T05:51:40.285Z,24.20
2022-12-17T05:54:26.938Z,24.70
2022-12-17T05:57:13.654Z,22.57
2022-12-17T05:59:59.615Z,21.27
2022-12-17T06:02:45.831Z,21.33
2022-12-17T06:05:32.097Z,20.30
2022-12-17T06:08:25.850Z,21.67
2022-12-17T06:11:13.043Z,21.27
2022-12-17T06:13:58.916Z,22.50
2022-12-17T06:16:44.982Z,22.63
2022-12-17T06:19:31.318Z,21.63
2022-12-17T06:22:17.395Z,21.23
2022-12-17T06:25:03.683Z,21.20
2022-12-17T06:27:49.481Z,21.87
2022-12-17T06:30:35.867Z,21.17
2022-12-17T06:33:31.344Z,22.23
2022-12-17T06:36:22.375Z,21.87
2022-12-17T06:39:09.341Z,21.70
2022-12-17T06:42:02.198Z,20.60
2022-12-17T06:44:50.475Z,23.87
2022-12-17T06:47:37.232Z,22.17
2022-12-17T06:50:24.084Z,21.53
2022-12-17T06:53:20.674Z,22.73
2022-12-17T06:56:06.881Z,22.27
2022-12-17T06:58:52.942Z,21.67
2022-12-17T07:01:39.024Z,21.17
2022-12-17T07:04:25.540Z,23.53
2022-12-17T07:07:11.473Z,24.07
2022-12-17T07:09:57.404Z,24.00
2022-12-17T07:12:43.341Z,22.07
2022-12-17T07:15:30.037Z,24.23
2022-12-17T07:18:17.681Z,21.23
2022-12-17T07:21:04.305Z,25.07
2022-12-17T07:23:50.417Z,24.13
2022-12-17T07:26:36.319Z,25.30
2022-12-17T07:29:22.306Z,25.80
2022-12-17T07:32:08.389Z,25.00
2022-12-17T07:34:54.659Z,22.40
2022-12-17T07:37:40.726Z,23.83
2022-12-17T07:40:27.140Z,24.90
2022-12-17T07:43:13.132Z,24.77
2022-12-17T07:45:59.121Z,25.23
2022-12-17T07:48:45.062Z,27.30
2022-12-17T07:51:31.168Z,25.57
2022-12-17T07:54:30.982Z,29.40
2022-12-17T07:57:16.908Z,27.10
2022-12-17T08:00:03.250Z,25.10
2022-12-17T08:02:50.987Z,28.13
2022-12-17T08:05:37.265Z,29.93
2022-12-17T08:08:27.643Z,26.43
2022-12-17T08:11:13.574Z,25.50
2022-12-17T08:14:03.954Z,25.90
2022-12-17T08:16:49.969Z,23.80
2022-12-17T08:19:36.162Z,25.67
2022-12-17T08:22:22.026Z,25.77
2022-12-17T08:25:07.927Z,28.20
2022-12-17T08:27:53.943Z,26.40
2022-12-17T08:30:40.017Z,26.57
2022-12-17T08:33:25.745Z,25.57
2022-12-17T08:36:30.061Z,26.63
2022-12-17T08:39:16.193Z,25.03
2022-12-17T08:42:04.523Z,25.70
2022-12-17T08:44:50.889Z,25.60
2022-12-17T08:47:37.010Z,25.57
2022-12-17T08:50:23.818Z,22.80
2022-12-17T08:53:40.304Z,25.43
2022-12-17T08:56:26.308Z,23.70
2022-12-17T08:59:12.341Z,25.27
2022-12-17T09:01:59.853Z,24.77
2022-12-17T09:04:45.752Z,23.00
2022-12-17T09:07:31.530Z,24.50
2022-12-17T09:10:18.006Z,24.30
2022-12-17T09:13:05.213Z,24.20
2022-12-17T09:15:51.647Z,26.57
2022-12-17T09:18:39.451Z,24.47
2022-12-17T09:21:26.266Z,24.53
2022-12-17T09:24:12.189Z,24.90
2022-12-17T09:26:57.960Z,23.50
2022-12-17T09:29:43.918Z,23.23
2022-12-17T09:32:29.995Z,23.07
2022-12-17T09:35:16.075Z,21.43
2022-12-17T09:38:02.219Z,24.73
2022-12-17T09:40:49.169Z,21.97
2022-12-17T09:44:13.159Z,23.77
2022-12-17T09:47:10.610Z,22.43
2022-12-17T09:50:01.377Z,23.90
2022-12-17T09:52:59.445Z,23.77
2022-12-17T09:55:58.266Z,21.13
2022-12-17T09:58:46.982Z,23.70
2022-12-17T10:01:53.916Z,23.93
2022-12-17T10:04:55.790Z,22.17
2022-12-17T10:07:46.653Z,23.00
2022-12-17T10:10:42.285Z,21.57
2022-12-17T10:13:33.341Z,21.90
2022-12-17T10:16:19.583Z,22.23
2022-12-17T10:19:06.428Z,20.73
2022-12-17T10:21:54.838Z,22.17
2022-12-17T10:24:40.773Z,21.57
2022-12-17T10:27:30.170Z,22.97
2022-12-17T10:30:16.176Z,20.90
2022-12-17T10:33:02.086Z,23.60
2022-12-17T10:35:55.988Z,22.93
2022-12-17T10:38:47.884Z,23.83
2022-12-17T10:41:49.060Z,19.70
2022-12-17T10:44:45.054Z,22.37
2022-12-17T10:47:36.484Z,23.00
2022-12-17T10:50:39.769Z,23.07
2022-12-17T10:53:42.591Z,21.43
2022-12-17T10:56:41.085Z,23.30
2022-12-17T10:59:31.955Z,24.10
2022-12-17T11:02:18.469Z,24.77
2022-12-17T11:05:12.670Z,23.67
2022-12-17T11:08:01.266Z,24.33
2022-12-17T11:10:50.250Z,24.90
2022-12-17T11:13:43.088Z,23.53
2022-12-17T11:16:51.128Z,25.43
2022-12-17T11:19:56.442Z,26.13
2022-12-17T11:22:58.241Z,25.83
2022-12-17T11:26:12.057Z,26.13
2022-12-17T11:28:58.374Z,25.30
2022-12-17T11:31:47.317Z,27.30
2022-12-17T11:34:51.790Z,27.33
2022-12-17T11:37:41.307Z,27.53
2022-12-17T11:40:43.869Z,28.70
2022-12-17T11:43:43.358Z,28.93
2022-12-17T11:46:46.353Z,31.10
2022-12-17T11:49:44.201Z,31.33
2022-12-17T11:52:36.272Z,30.70
2022-12-17T11:56:03.151Z,31.60
2022-12-17T11:58:59.777Z,29.47
2022-12-17T12:02:12.626Z,30.87
2022-12-17T12:05:29.431Z,28.87
2022-12-17T12:08:37.376Z,29.90
2022-12-17T12:11:35.567Z,29.47
2022-12-17T12:14:42.129Z,30.10
2022-12-17T12:17:58.353Z,30.33
2022-12-17T12:21:18.079Z,29.20
2022-12-17T12:24:29.023Z,30.97
2022-12-17T12:27:30.960Z,31.43
2022-12-17T12:30:25.120Z,32.43
2022-12-17T12:33:30.189Z,30.77
2022-12-17T12:36:20.592Z,29.80
2022-12-17T12:39:11.948Z,27.60
2022-12-17T12:42:04.544Z,26.90
2022-12-17T12:44:59.524Z,27.13
2022-12-17T12:47:59.724Z,25.07
2022-12-17T12:51:03.925Z,25.13
2022-12-17T12:53:49.721Z,25.57
2022-12-17T12:56:53.215Z,25.20
2022-12-17T12:59:47.654Z,25.27
2022-12-17T13:02:51.508Z,24.63
2022-12-17T13:05:34.451Z,26.43
2022-12-17T13:08:23.993Z,24.73
2022-12-17T13:10:53.382Z,25.53
2022-12-17T13:13:34.853Z,25.30
2022-12-17T13:16:20.403Z,25.10
2022-12-17T13:18:47.827Z,25.97
2022-12-17T13:21:15.182Z,26.17
2022-12-17T13:23:43.340Z,26.10
2022-12-17T13:26:23.275Z,23.80
2022-12-17T13:29:10.498Z,24.40
2022-12-17T13:32:19.506Z,24.90
2022-12-17T13:35:33.199Z,25.20
2022-12-17T13:38:19.737Z,24.83
2022-12-17T13:40:54.959Z,25.23
2022-12-17T13:43:26.731Z,23.57
2022-12-17T13:45:55.853Z,24.60
2022-12-17T13:48:28.190Z,24.40
2022-12-17T13:51:04.234Z,23.07
2022-12-17T13:53:35.525Z,22.27
2022-12-17T13:56:03.241Z,22.17
2022-12-17T13:58:34.579Z,24.43
2022-12-17T14:01:18.083Z,26.30
2022-12-17T14:04:06.275Z,27.47
2022-12-17T14:06:37.961Z,27.80
2022-12-17T14:09:06.372Z,27.93
2022-12-17T14:11:52.372Z,28.10
2022-12-17T14:14:32.960Z,27.50
2022-12-17T14:17:01.382Z,29.13
2022-12-17T14:19:30.344Z,28.73
2022-12-17T14:21:58.509Z,28.73
2022-12-17T14:24:29.447Z,28.63
2022-12-17T14:26:59.280Z,29.27
2022-12-17T14:29:31.791Z,29.43
2022-12-17T14:32:02.199Z,29.80
2022-12-17T14:34:40.289Z,30.13
2022-12-17T14:37:17.727Z,29.67
2022-12-17T14:39:47.717Z,29.47
2022-12-17T14:42:27.167Z,29.17
2022-12-17T14:44:56.530Z,30.40
2022-12-17T14:47:29.618Z,27.87
2022-12-17T14:50:06.210Z,29.33
2022-12-17T14:52:44.075Z,28.47
2022-12-17T14:55:31.637Z,28.50
2022-12-17T14:58:08.067Z,28.00
2022-12-17T15:00:39.474Z,29.10
2022-12-17T15:03:11.349Z,30.33
2022-12-17T15:05:38.838Z,30.03
2022-12-17T15:08:06.379Z,30.37
2022-12-17T15:10:33.610Z,31.43
2022-12-17T15:13:01.088Z,31.27
2022-12-17T15:15:28.584Z,29.57
2022-12-17T15:17:56.202Z,28.47
2022-12-17T15:20:23.575Z,28.67
2022-12-17T15:22:52.225Z,28.77
2022-12-17T15:25:20.305Z,27.70
2022-12-17T15:27:47.792Z,27.80
2022-12-17T15:30:17.451Z,28.13
2022-12-17T15:32:45.777Z,28.33
2022-12-17T15:35:14.513Z,28.80
2022-12-17T15:37:41.965Z,29.43
2022-12-17T15:40:12.128Z,27.73
2022-12-17T15:43:04.434Z,25.90
2022-12-17T15:45:33.774Z,26.60
2022-12-17T15:48:01.532Z,28.57
2022-12-17T15:50:30.062Z,27.53
2022-12-17T15:52:57.506Z,29.53
2022-12-17T15:55:25.004Z,30.83
2022-12-17T15:57:52.421Z,29.77
2022-12-17T16:00:20.340Z,31.30
2022-12-17T16:02:49.607Z,29.43
2022-12-17T16:05:17.573Z,30.87
2022-12-17T16:07:44.977Z,28.57
2022-12-17T16:10:13.861Z,30.80
2022-12-17T16:12:41.897Z,31.63
2022-12-17T16:15:10.601Z,31.07
2022-12-17T16:17:38.223Z,31.37
2022-12-17T16:20:06.945Z,33.30
2022-12-17T16:22:34.979Z,30.20
2022-12-17T16:25:02.433Z,31.90
2022-12-17T16:27:29.846Z,34.17
2022-12-17T16:29:57.300Z,31.13
2022-12-17T16:32:24.644Z,29.13
2022-12-17T16:34:52.033Z,30.80
2022-12-17T16:37:19.544Z,28.47
2022-12-17T16:39:47.006Z,29.03
2022-12-17T16:42:14.238Z,27.93
2022-12-17T16:44:41.581Z,27.70
2022-12-17T16:47:10.820Z,23.67
2022-12-17T16:49:38.246Z,24.57
2022-12-17T16:52:05.723Z,23.07
2022-12-17T16:54:33.600Z,20.67
2022-12-17T16:57:02.030Z,20.43
2022-12-17T16:59:30.110Z,19.80
2022-12-17T17:01:57.628Z,18.40
2022-12-17T17:04:25.122Z,20.03
2022-12-17T17:06:55.469Z,17.77
2022-12-17T17:09:24.165Z,18.97
2022-12-17T17:11:54.652Z,16.90
2022-12-17T17:14:22.084Z,16.60
2022-12-17T17:16:49.814Z,17.27
2022-12-17T17:19:18.562Z,15.13
2022-12-17T17:21:52.720Z,15.43
2022-12-17T17:24:22.420Z,14.37
2022-12-17T17:26:51.309Z,13.73
2022-12-17T17:29:18.973Z,14.80
2022-12-17T17:32:09.344Z,13.47
2022-12-17T17:34:37.089Z,13.27
2022-12-17T17:37:04.358Z,14.87
2022-12-17T17:39:33.391Z,13.60
2022-12-17T17:42:02.102Z,13.17
2022-12-17T17:44:29.597Z,13.60
2022-12-17T17:46:56.986Z,13.43
2022-12-17T17:49:25.166Z,12.60
2022-12-17T17:52:08.848Z,12.27
2022-12-17T17:54:39.490Z,17.73
2022-12-17T17:57:07.353Z,13.17
2022-12-17T17:59:34.823Z,13.53
2022-12-17T18:02:03.541Z,12.30
2022-12-17T18:04:31.803Z,13.23
2022-12-17T18:09:46.739Z,12.53
2022-12-17T18:12:32.925Z,12.00
2022-12-17T18:15:17.299Z,13.27
2022-12-17T18:17:50.046Z,11.83
2022-12-17T18:20:17.950Z,12.70
2022-12-17T18:22:46.294Z,12.17
2022-12-17T18:25:15.646Z,11.80
2022-12-17T18:27:44.128Z,12.40
2022-12-17T18:30:12.188Z,12.83
2022-12-17T18:32:39.602Z,13.53
2022-12-17T18:35:07.667Z,13.50
2022-12-17T18:37:35.252Z,12.47
2022-12-17T18:40:03.619Z,11.97
2022-12-17T18:42:49.230Z,12.40
2022-12-17T18:45:17.071Z,11.57
2022-12-17T18:47:44.825Z,13.50
2022-12-17T18:50:12.833Z,13.93
2022-12-17T18:52:41.546Z,13.27
2022-12-17T18:55:12.256Z,13.10
2022-12-17T18:57:41.090Z,13.80
2022-12-17T19:00:09.263Z,13.37
2022-12-17T19:02:36.776Z,12.60
2022-12-17T19:05:04.704Z,13.33
2022-12-17T19:07:32.113Z,13.37
2022-12-17T19:09:59.503Z,13.07
2022-12-17T19:12:26.803Z,13.10
2022-12-17T19:14:54.112Z,15.70
2022-12-17T19:17:21.549Z,15.23
2022-12-17T19:19:49.057Z,12.20
2022-12-17T19:22:16.393Z,12.43
2022-12-17T19:24:43.774Z,13.50
2022-12-17T19:27:11.193Z,13.27
2022-12-17T19:29:38.551Z,12.20
2022-12-17T19:32:05.861Z,12.67
2022-12-17T19:34:35.186Z,11.73
2022-12-17T19:37:03.100Z,13.37
2022-12-17T19:39:30.476Z,11.63
2022-12-17T19:41:57.915Z,11.27
2022-12-17T19:44:25.523Z,10.63
2022-12-17T19:46:53.117Z,11.33
2022-12-17T19:49:20.631Z,10.83
2022-12-17T19:51:48.211Z,9.70
2022-12-17T19:54:15.722Z,10.50
2022-12-17T19:56:45.138Z,10.03
2022-12-17T19:59:13.442Z,10.07
2022-12-17T20:01:44.740Z,10.80
2022-12-17T20:04:14.926Z,10.20
2022-12-17T20:06:44.071Z,10.07
2022-12-17T20:09:11.857Z,10.40
2022-12-17T20:11:39.612Z,9.70
2022-12-17T20:14:17.141Z,10.17
2022-12-17T20:16:46.947Z,9.27
2022-12-17T20:19:34.719Z,9.60
2022-12-17T20:22:04.705Z,10.00
2022-12-17T20:24:32.472Z,9.73
2022-12-17T20:27:01.232Z,10.00
2022-12-17T20:29:29.372Z,9.57
2022-12-17T20:31:56.862Z,9.33
2022-12-17T20:34:25.165Z,9.20
2022-12-17T20:36:53.885Z,8.90
2022-12-17T20:39:26.674Z,9.37
2022-12-17T20:41:54.740Z,9.60
2022-12-17T20:44:22.126Z,8.63
2022-12-17T20:46:49.391Z,9.80
2022-12-17T20:49:16.685Z,9.43
2022-12-17T20:51:44.599Z,10.20
2022-12-17T20:54:12.001Z,10.47
2022-12-17T20:56:40.218Z,9.93
2022-12-17T20:59:13.493Z,10.67
2022-12-17T21:01:41.149Z,10.43
2022-12-17T21:04:08.623Z,11.00
2022-12-17T21:06:38.974Z,9.73
2022-12-17T21:09:07.486Z,11.33
2022-12-17T21:11:36.775Z,10.97
2022-12-17T21:14:12.658Z,12.33
2022-12-17T21:16:41.565Z,11.00
2022-12-17T21:19:11.473Z,12.03
2022-12-17T21:21:38.977Z,10.20
2022-12-17T21:24:07.231Z,9.87
2022-12-17T21:26:36.829Z,10.30
2022-12-17T21:29:06.569Z,10.27
2022-12-17T21:31:38.380Z,10.43
2022-12-17T21:34:07.699Z,10.60
2022-12-17T21:36:36.388Z,11.47
2022-12-17T21:39:08.927Z,16.33
2022-12-17T21:41:42.558Z,9.73
2022-12-17T21:44:15.467Z,9.00
2022-12-17T21:46:44.097Z,9.50
2022-12-17T21:49:16.932Z,9.67
2022-12-17T21:51:44.632Z,9.80
2022-12-17T21:54:17.290Z,10.40
2022-12-17T21:56:47.858Z,9.73
2022-12-17T21:59:15.723Z,10.40
2022-12-17T22:01:43.282Z,9.80
2022-12-17T22:04:11.308Z,9.37
2022-12-17T22:06:40.555Z,9.10
2022-12-17T22:09:37.162Z,9.23
2022-12-17T22:12:21.291Z,8.93
2022-12-17T22:14:48.668Z,8.67
2022-12-17T22:17:16.422Z,9.17
2022-12-17T22:19:43.656Z,10.07
2022-12-17T22:22:10.986Z,9.53
2022-12-17T22:24:38.522Z,10.27
2022-12-17T22:27:08.812Z,9.20
2022-12-17T22:29:56.202Z,8.23
2022-12-17T22:32:42.253Z,9.10
2022-12-17T22:35:59.034Z,9.17
2022-12-17T22:41:28.509Z,10.13
2022-12-17T22:44:31.064Z,9.83
2022-12-17T22:44:38.995Z,10.67
2022-12-17T22:46:20.319Z,10.37
2022-12-17T22:48:47.827Z,9.10
2022-12-17T22:51:21.099Z,8.80
2022-12-17T22:53:54.410Z,9.30
2022-12-17T22:56:37.417Z,8.77
2022-12-17T22:59:16.387Z,8.77
2022-12-17T23:01:44.436Z,8.87
2022-12-17T23:04:16.218Z,8.83
2022-12-17T23:06:47.879Z,8.70
2022-12-17T23:09:19.421Z,9.30
2022-12-17T23:11:48.707Z,9.07
2022-12-17T23:14:17.261Z,9.60
2022-12-17T23:16:44.734Z,10.47
2022-12-17T23:19:13.641Z,8.77
2022-12-17T23:21:40.992Z,9.00
2022-12-17T23:24:08.937Z,8.47
2022-12-17T23:26:37.496Z,8.50
2022-12-17T23:29:09.209Z,7.60
2022-12-17T23:31:38.568Z,8.63
2022-12-17T23:34:06.960Z,8.10
2022-12-17T23:36:35.424Z,7.77
2022-12-17T23:39:02.839Z,8.07
2022-12-17T23:41:31.438Z,8.83
2022-12-17T23:43:59.837Z,8.07
2022-12-17T23:46:30.503Z,8.23
2022-12-17T23:48:58.035Z,9.23
2022-12-17T23:51:26.700Z,7.93
2022-12-17T23:53:53.967Z,8.77
2022-12-17T23:56:24.586Z,8.60
2022-12-17T23:58:57.293Z,9.20
